sensor_id;sensor_type;location;lat;lon;timestamp;P1;durP1;ratioP1;P2;durP2;ratioP2
803;SDS011;25687;49.976;8.240;2022-12-29T00:01:44;4.47;;;2.43;;
803;SDS011;25687;49.976;8.240;2022-12-29T00:04:11;4.73;;;2.27;;
803;SDS011;25687;49.976;8.240;2022-12-29T00:06:38;3.87;;;2.40;;
803;SDS011;25687;49.976;8.240;2022-12-29T00:09:03;2.20;;;1.90;;
803;SDS011;25687;49.976;8.240;2022-12-29T00:11:28;3.33;;;2.27;;
803;SDS011;25687;49.976;8.240;2022-12-29T00:13:54;4.10;;;2.50;;
803;SDS011;25687;49.976;8.240;2022-12-29T00:16:40;2.50;;;2.30;;
803;SDS011;25687;49.976;8.240;2022-12-29T00:19:08;2.80;;;1.90;;
803;SDS011;25687;49.976;8.240;2022-12-29T00:21:53;3.17;;;2.50;;
803;SDS011;25687;49.976;8.240;2022-12-29T00:24:37;2.23;;;1.83;;
803;SDS011;25687;49.976;8.240;2022-12-29T00:27:23;5.23;;;2.70;;
803;SDS011;25687;49.976;8.240;2022-12-29T00:30:10;2.43;;;1.80;;
803;SDS011;25687;49.976;8.240;2022-12-29T00:32:56;2.93;;;2.23;;
803;SDS011;25687;49.976;8.240;2022-12-29T00:36:02;3.23;;;2.20;;
803;SDS011;25687;49.976;8.240;2022-12-29T00:38:28;2.50;;;2.27;;
803;SDS011;25687;49.976;8.240;2022-12-29T00:41:12;3.43;;;2.07;;
803;SDS011;25687;49.976;8.240;2022-12-29T00:43:56;2.53;;;1.90;;
803;SDS011;25687;49.976;8.240;2022-12-29T00:46:31;3.50;;;2.30;;
803;SDS011;25687;49.976;8.240;2022-12-29T00:48:57;3.30;;;2.10;;
803;SDS011;25687;49.976;8.240;2022-12-29T00:51:41;2.67;;;2.20;;
803;SDS011;25687;49.976;8.240;2022-12-29T00:54:07;2.57;;;2.10;;
803;SDS011;25687;49.976;8.240;2022-12-29T00:56:33;3.60;;;2.23;;
803;SDS011;25687;49.976;8.240;2022-12-29T00:59:02;4.87;;;2.37;;
803;SDS011;25687;49.976;8.240;2022-12-29T01:01:32;3.17;;;2.30;;
803;SDS011;25687;49.976;8.240;2022-12-29T01:03:58;2.33;;;2.13;;
803;SDS011;25687;49.976;8.240;2022-12-29T01:06:23;2.87;;;2.20;;
803;SDS011;25687;49.976;8.240;2022-12-29T01:08:49;4.87;;;2.33;;
803;SDS011;25687;49.976;8.240;2022-12-29T01:11:35;5.60;;;2.30;;
803;SDS011;25687;49.976;8.240;2022-12-29T01:14:00;3.13;;;2.43;;
803;SDS011;25687;49.976;8.240;2022-12-29T01:16:26;4.27;;;2.20;;
803;SDS011;25687;49.976;8.240;2022-12-29T01:18:51;2.03;;;1.73;;
803;SDS011;25687;49.976;8.240;2022-12-29T01:21:16;2.00;;;1.80;;
803;SDS011;25687;49.976;8.240;2022-12-29T01:23:42;2.93;;;1.77;;
803;SDS011;25687;49.976;8.240;2022-12-29T01:26:10;2.10;;;1.90;;
803;SDS011;25687;49.976;8.240;2022-12-29T01:28:37;3.00;;;2.10;;
803;SDS011;25687;49.976;8.240;2022-12-29T01:31:05;2.20;;;2.00;;
803;SDS011;25687;49.976;8.240;2022-12-29T01:33:30;3.03;;;2.00;;
803;SDS011;25687;49.976;8.240;2022-12-29T01:35:59;4.60;;;2.00;;
803;SDS011;25687;49.976;8.240;2022-12-29T01:38:29;4.50;;;2.00;;
803;SDS011;25687;49.976;8.240;2022-12-29T01:40:55;4.13;;;1.97;;
803;SDS011;25687;49.976;8.240;2022-12-29T01:43:20;2.67;;;1.97;;
803;SDS011;25687;49.976;8.240;2022-12-29T01:45:49;3.40;;;1.70;;
803;SDS011;25687;49.976;8.240;2022-12-29T01:48:16;2.03;;;1.67;;
803;SDS011;25687;49.976;8.240;2022-12-29T01:50:48;2.63;;;1.90;;
803;SDS011;25687;49.976;8.240;2022-12-29T01:53:21;5.10;;;1.87;;
803;SDS011;25687;49.976;8.240;2022-12-29T01:55:54;3.67;;;2.00;;
803;SDS011;25687;49.976;8.240;2022-12-29T01:58:24;1.97;;;1.73;;
803;SDS011;25687;49.976;8.240;2022-12-29T02:00:54;3.27;;;2.27;;
803;SDS011;25687;49.976;8.240;2022-12-29T02:03:20;3.97;;;1.90;;
803;SDS011;25687;49.976;8.240;2022-12-29T02:08:16;3.17;;;1.80;;
803;SDS011;25687;49.976;8.240;2022-12-29T02:10:42;4.07;;;1.70;;
803;SDS011;25687;49.976;8.240;2022-12-29T02:13:09;2.07;;;1.57;;
803;SDS011;25687;49.976;8.240;2022-12-29T02:18:12;3.47;;;1.70;;
803;SDS011;25687;49.976;8.240;2022-12-29T02:21:10;4.30;;;1.37;;
803;SDS011;25687;49.976;8.240;2022-12-29T02:32:34;2.00;;;1.90;;
803;SDS011;25687;49.976;8.240;2022-12-29T02:35:18;2.77;;;1.30;;
803;SDS011;25687;49.976;8.240;2022-12-29T02:38:03;3.23;;;1.70;;
803;SDS011;25687;49.976;8.240;2022-12-29T02:40:47;1.43;;;1.33;;
803;SDS011;25687;49.976;8.240;2022-12-29T02:46:04;1.67;;;1.50;;
803;SDS011;25687;49.976;8.240;2022-12-29T02:48:39;2.07;;;1.77;;
803;SDS011;25687;49.976;8.240;2022-12-29T02:51:18;2.63;;;1.10;;
803;SDS011;25687;49.976;8.240;2022-12-29T02:53:48;1.63;;;1.20;;
803;SDS011;25687;49.976;8.240;2022-12-29T02:56:36;1.33;;;1.23;;
803;SDS011;25687;49.976;8.240;2022-12-29T02:59:01;1.90;;;1.30;;
803;SDS011;25687;49.976;8.240;2022-12-29T03:01:33;4.03;;;1.33;;
803;SDS011;25687;49.976;8.240;2022-12-29T03:06:56;1.40;;;1.20;;
803;SDS011;25687;49.976;8.240;2022-12-29T03:09:53;2.93;;;1.33;;
803;SDS011;25687;49.976;8.240;2022-12-29T03:15:34;2.33;;;1.63;;
803;SDS011;25687;49.976;8.240;2022-12-29T03:18:24;4.67;;;1.70;;
803;SDS011;25687;49.976;8.240;2022-12-29T03:21:03;2.00;;;1.60;;
803;SDS011;25687;49.976;8.240;2022-12-29T03:23:34;1.70;;;1.17;;
803;SDS011;25687;49.976;8.240;2022-12-29T03:26:03;3.33;;;1.73;;
803;SDS011;25687;49.976;8.240;2022-12-29T03:28:38;2.07;;;1.70;;
803;SDS011;25687;49.976;8.240;2022-12-29T03:31:06;3.50;;;1.60;;
803;SDS011;25687;49.976;8.240;2022-12-29T03:33:34;1.80;;;1.60;;
803;SDS011;25687;49.976;8.240;2022-12-29T03:36:03;3.50;;;1.70;;
803;SDS011;25687;49.976;8.240;2022-12-29T03:38:35;2.60;;;1.37;;
803;SDS011;25687;49.976;8.240;2022-12-29T03:41:09;2.03;;;1.73;;
803;SDS011;25687;49.976;8.240;2022-12-29T03:43:38;2.27;;;1.60;;
803;SDS011;25687;49.976;8.240;2022-12-29T03:46:04;1.80;;;1.40;;
803;SDS011;25687;49.976;8.240;2022-12-29T03:48:29;2.70;;;1.50;;
803;SDS011;25687;49.976;8.240;2022-12-29T03:50:54;2.53;;;1.70;;
803;SDS011;25687;49.976;8.240;2022-12-29T03:53:19;1.50;;;1.40;;
803;SDS011;25687;49.976;8.240;2022-12-29T03:55:45;5.87;;;1.90;;
803;SDS011;25687;49.976;8.240;2022-12-29T03:58:10;2.33;;;1.50;;
803;SDS011;25687;49.976;8.240;2022-12-29T04:00:35;2.00;;;1.60;;
803;SDS011;25687;49.976;8.240;2022-12-29T04:03:01;1.53;;;1.43;;
803;SDS011;25687;49.976;8.240;2022-12-29T04:05:26;1.70;;;1.60;;
803;SDS011;25687;49.976;8.240;2022-12-29T04:07:51;4.73;;;1.57;;
803;SDS011;25687;49.976;8.240;2022-12-29T04:10:17;4.07;;;1.90;;
803;SDS011;25687;49.976;8.240;2022-12-29T04:12:42;5.70;;;1.80;;
803;SDS011;25687;49.976;8.240;2022-12-29T04:15:09;2.83;;;1.33;;
803;SDS011;25687;49.976;8.240;2022-12-29T04:17:34;3.17;;;1.50;;
803;SDS011;25687;49.976;8.240;2022-12-29T04:20:00;2.50;;;1.80;;
803;SDS011;25687;49.976;8.240;2022-12-29T04:22:44;2.23;;;1.80;;
803;SDS011;25687;49.976;8.240;2022-12-29T04:25:09;2.23;;;1.50;;
803;SDS011;25687;49.976;8.240;2022-12-29T04:27:34;1.90;;;1.73;;
803;SDS011;25687;49.976;8.240;2022-12-29T04:30:00;3.47;;;1.50;;
803;SDS011;25687;49.976;8.240;2022-12-29T04:32:25;4.17;;;1.80;;
803;SDS011;25687;49.976;8.240;2022-12-29T04:34:50;3.60;;;1.67;;
803;SDS011;25687;49.976;8.240;2022-12-29T04:37:15;1.40;;;1.20;;
803;SDS011;25687;49.976;8.240;2022-12-29T04:39:41;2.00;;;1.67;;
803;SDS011;25687;49.976;8.240;2022-12-29T04:42:06;2.50;;;1.40;;
803;SDS011;25687;49.976;8.240;2022-12-29T04:44:31;2.47;;;1.53;;
803;SDS011;25687;49.976;8.240;2022-12-29T04:46:56;2.57;;;1.50;;
803;SDS011;25687;49.976;8.240;2022-12-29T04:49:22;3.30;;;1.70;;
803;SDS011;25687;49.976;8.240;2022-12-29T04:51:47;2.73;;;1.70;;
803;SDS011;25687;49.976;8.240;2022-12-29T04:54:12;3.33;;;1.67;;
803;SDS011;25687;49.976;8.240;2022-12-29T04:56:37;4.67;;;1.80;;
803;SDS011;25687;49.976;8.240;2022-12-29T04:59:03;2.03;;;1.67;;
803;SDS011;25687;49.976;8.240;2022-12-29T05:01:28;4.13;;;1.50;;
803;SDS011;25687;49.976;8.240;2022-12-29T05:03:53;1.87;;;1.57;;
803;SDS011;25687;49.976;8.240;2022-12-29T05:06:18;2.80;;;1.77;;
803;SDS011;25687;49.976;8.240;2022-12-29T05:08:44;2.23;;;1.80;;
803;SDS011;25687;49.976;8.240;2022-12-29T05:11:09;3.70;;;1.50;;
803;SDS011;25687;49.976;8.240;2022-12-29T05:13:35;1.30;;;1.20;;
803;SDS011;25687;49.976;8.240;2022-12-29T05:16:00;2.00;;;1.57;;
803;SDS011;25687;49.976;8.240;2022-12-29T05:18:25;3.20;;;1.40;;
803;SDS011;25687;49.976;8.240;2022-12-29T05:20:50;4.10;;;1.60;;
803;SDS011;25687;49.976;8.240;2022-12-29T05:23:16;1.77;;;1.30;;
803;SDS011;25687;49.976;8.240;2022-12-29T05:25:42;3.00;;;1.80;;
803;SDS011;25687;49.976;8.240;2022-12-29T05:28:10;2.83;;;1.43;;
803;SDS011;25687;49.976;8.240;2022-12-29T05:30:35;2.33;;;1.53;;
803;SDS011;25687;49.976;8.240;2022-12-29T05:33:00;3.40;;;1.80;;
803;SDS011;25687;49.976;8.240;2022-12-29T05:35:25;2.30;;;1.50;;
803;SDS011;25687;49.976;8.240;2022-12-29T05:37:51;4.40;;;1.93;;
803;SDS011;25687;49.976;8.240;2022-12-29T05:40:16;3.00;;;1.70;;
803;SDS011;25687;49.976;8.240;2022-12-29T05:42:42;2.70;;;1.40;;
803;SDS011;25687;49.976;8.240;2022-12-29T05:45:07;2.40;;;1.60;;
803;SDS011;25687;49.976;8.240;2022-12-29T05:47:33;2.40;;;1.73;;
803;SDS011;25687;49.976;8.240;2022-12-29T05:49:59;2.00;;;1.40;;
803;SDS011;25687;49.976;8.240;2022-12-29T05:52:24;3.23;;;1.80;;
803;SDS011;25687;49.976;8.240;2022-12-29T05:54:50;1.37;;;1.20;;
803;SDS011;25687;49.976;8.240;2022-12-29T05:57:15;3.23;;;1.47;;
803;SDS011;25687;49.976;8.240;2022-12-29T05:59:40;4.30;;;2.20;;
803;SDS011;25687;49.976;8.240;2022-12-29T06:02:06;4.80;;;1.70;;
803;SDS011;25687;49.976;8.240;2022-12-29T06:04:31;1.87;;;1.43;;
803;SDS011;25687;49.976;8.240;2022-12-29T06:06:56;2.33;;;1.30;;
803;SDS011;25687;49.976;8.240;2022-12-29T06:09:21;2.43;;;1.50;;
803;SDS011;25687;49.976;8.240;2022-12-29T06:11:47;2.00;;;1.40;;
803;SDS011;25687;49.976;8.240;2022-12-29T06:14:12;1.50;;;1.40;;
803;SDS011;25687;49.976;8.240;2022-12-29T06:16:37;1.70;;;1.40;;
803;SDS011;25687;49.976;8.240;2022-12-29T06:19:02;1.50;;;1.40;;
803;SDS011;25687;49.976;8.240;2022-12-29T06:21:28;2.83;;;1.50;;
803;SDS011;25687;49.976;8.240;2022-12-29T06:23:53;3.63;;;1.20;;
803;SDS011;25687;49.976;8.240;2022-12-29T06:26:18;3.03;;;1.50;;
803;SDS011;25687;49.976;8.240;2022-12-29T06:28:44;4.47;;;1.20;;
803;SDS011;25687;49.976;8.240;2022-12-29T06:31:09;1.70;;;1.40;;
803;SDS011;25687;49.976;8.240;2022-12-29T06:33:36;4.47;;;1.50;;
803;SDS011;25687;49.976;8.240;2022-12-29T06:36:01;2.40;;;1.80;;
803;SDS011;25687;49.976;8.240;2022-12-29T06:38:27;2.17;;;1.40;;
803;SDS011;25687;49.976;8.240;2022-12-29T06:40:52;3.13;;;1.73;;
803;SDS011;25687;49.976;8.240;2022-12-29T06:43:17;6.50;;;1.70;;
803;SDS011;25687;49.976;8.240;2022-12-29T06:45:43;3.93;;;2.07;;
803;SDS011;25687;49.976;8.240;2022-12-29T06:48:08;4.27;;;1.87;;
803;SDS011;25687;49.976;8.240;2022-12-29T06:50:33;4.17;;;1.87;;
803;SDS011;25687;49.976;8.240;2022-12-29T06:52:59;3.70;;;1.93;;
803;SDS011;25687;49.976;8.240;2022-12-29T06:55:24;2.00;;;1.53;;
803;SDS011;25687;49.976;8.240;2022-12-29T06:57:49;6.03;;;1.80;;
803;SDS011;25687;49.976;8.240;2022-12-29T07:00:15;6.53;;;2.10;;
803;SDS011;25687;49.976;8.240;2022-12-29T07:02:42;2.93;;;1.63;;
803;SDS011;25687;49.976;8.240;2022-12-29T07:05:07;2.43;;;2.20;;
803;SDS011;25687;49.976;8.240;2022-12-29T07:07:34;3.10;;;1.50;;
803;SDS011;25687;49.976;8.240;2022-12-29T07:09:59;4.33;;;2.07;;
803;SDS011;25687;49.976;8.240;2022-12-29T07:12:24;3.90;;;1.83;;
803;SDS011;25687;49.976;8.240;2022-12-29T07:14:50;1.80;;;1.60;;
803;SDS011;25687;49.976;8.240;2022-12-29T07:17:15;2.47;;;2.17;;
803;SDS011;25687;49.976;8.240;2022-12-29T07:19:40;5.13;;;2.10;;
803;SDS011;25687;49.976;8.240;2022-12-29T07:22:06;2.03;;;1.83;;
803;SDS011;25687;49.976;8.240;2022-12-29T07:24:31;4.30;;;1.77;;
803;SDS011;25687;49.976;8.240;2022-12-29T07:26:56;3.93;;;2.13;;
803;SDS011;25687;49.976;8.240;2022-12-29T07:29:22;6.10;;;2.00;;
803;SDS011;25687;49.976;8.240;2022-12-29T07:31:47;4.80;;;2.20;;
803;SDS011;25687;49.976;8.240;2022-12-29T07:34:12;4.83;;;2.43;;
803;SDS011;25687;49.976;8.240;2022-12-29T07:36:37;3.13;;;2.37;;
803;SDS011;25687;49.976;8.240;2022-12-29T07:39:03;3.97;;;2.43;;
803;SDS011;25687;49.976;8.240;2022-12-29T07:41:28;4.40;;;2.20;;
803;SDS011;25687;49.976;8.240;2022-12-29T07:43:54;2.90;;;2.30;;
803;SDS011;25687;49.976;8.240;2022-12-29T07:46:19;4.40;;;2.20;;
803;SDS011;25687;49.976;8.240;2022-12-29T07:48:44;3.97;;;2.20;;
803;SDS011;25687;49.976;8.240;2022-12-29T07:51:09;6.80;;;2.47;;
803;SDS011;25687;49.976;8.240;2022-12-29T07:53:35;4.73;;;2.30;;
803;SDS011;25687;49.976;8.240;2022-12-29T07:56:00;3.43;;;2.50;;
803;SDS011;25687;49.976;8.240;2022-12-29T07:58:25;4.13;;;2.83;;
803;SDS011;25687;49.976;8.240;2022-12-29T08:00:54;4.03;;;2.37;;
803;SDS011;25687;49.976;8.240;2022-12-29T08:03:20;6.00;;;2.60;;
803;SDS011;25687;49.976;8.240;2022-12-29T08:05:45;7.70;;;2.50;;
803;SDS011;25687;49.976;8.240;2022-12-29T08:08:11;3.70;;;2.50;;
803;SDS011;25687;49.976;8.240;2022-12-29T08:10:36;3.67;;;2.50;;
803;SDS011;25687;49.976;8.240;2022-12-29T08:13:04;5.53;;;3.10;;
803;SDS011;25687;49.976;8.240;2022-12-29T08:15:29;7.43;;;2.87;;
803;SDS011;25687;49.976;8.240;2022-12-29T08:17:54;5.77;;;2.97;;
803;SDS011;25687;49.976;8.240;2022-12-29T08:20:20;4.23;;;2.67;;
803;SDS011;25687;49.976;8.240;2022-12-29T08:22:45;4.13;;;2.90;;
803;SDS011;25687;49.976;8.240;2022-12-29T08:25:10;2.80;;;2.30;;
803;SDS011;25687;49.976;8.240;2022-12-29T08:27:35;3.77;;;2.60;;
803;SDS011;25687;49.976;8.240;2022-12-29T08:30:01;5.43;;;2.87;;
803;SDS011;25687;49.976;8.240;2022-12-29T08:32:27;3.07;;;2.20;;
803;SDS011;25687;49.976;8.240;2022-12-29T08:34:53;7.10;;;2.60;;
803;SDS011;25687;49.976;8.240;2022-12-29T08:37:18;4.13;;;2.30;;
803;SDS011;25687;49.976;8.240;2022-12-29T08:39:44;7.87;;;3.27;;
803;SDS011;25687;49.976;8.240;2022-12-29T08:42:09;7.60;;;3.63;;
803;SDS011;25687;49.976;8.240;2022-12-29T08:44:34;5.20;;;2.90;;
803;SDS011;25687;49.976;8.240;2022-12-29T08:46:59;4.00;;;3.30;;
803;SDS011;25687;49.976;8.240;2022-12-29T08:49:25;3.90;;;2.90;;
803;SDS011;25687;49.976;8.240;2022-12-29T08:51:50;5.07;;;3.27;;
803;SDS011;25687;49.976;8.240;2022-12-29T08:54:15;3.50;;;2.83;;
803;SDS011;25687;49.976;8.240;2022-12-29T08:56:40;4.87;;;2.73;;
803;SDS011;25687;49.976;8.240;2022-12-29T08:59:06;3.03;;;2.73;;
803;SDS011;25687;49.976;8.240;2022-12-29T09:01:31;5.60;;;3.43;;
803;SDS011;25687;49.976;8.240;2022-12-29T09:03:58;4.80;;;3.70;;
803;SDS011;25687;49.976;8.240;2022-12-29T09:06:23;3.80;;;2.97;;
803;SDS011;25687;49.976;8.240;2022-12-29T09:08:49;3.53;;;3.23;;
803;SDS011;25687;49.976;8.240;2022-12-29T09:11:16;4.60;;;3.23;;
803;SDS011;25687;49.976;8.240;2022-12-29T09:13:44;6.43;;;2.97;;
803;SDS011;25687;49.976;8.240;2022-12-29T09:16:10;4.13;;;3.20;;
803;SDS011;25687;49.976;8.240;2022-12-29T09:18:36;4.80;;;3.13;;
803;SDS011;25687;49.976;8.240;2022-12-29T09:21:02;4.07;;;2.80;;
803;SDS011;25687;49.976;8.240;2022-12-29T09:23:29;5.23;;;2.90;;
803;SDS011;25687;49.976;8.240;2022-12-29T09:25:54;4.87;;;2.80;;
803;SDS011;25687;49.976;8.240;2022-12-29T09:28:20;4.43;;;3.23;;
803;SDS011;25687;49.976;8.240;2022-12-29T09:30:46;6.53;;;3.30;;
803;SDS011;25687;49.976;8.240;2022-12-29T09:33:11;6.70;;;3.80;;
803;SDS011;25687;49.976;8.240;2022-12-29T09:35:37;5.80;;;3.10;;
803;SDS011;25687;49.976;8.240;2022-12-29T09:38:05;3.53;;;3.17;;
803;SDS011;25687;49.976;8.240;2022-12-29T09:40:31;5.27;;;3.27;;
803;SDS011;25687;49.976;8.240;2022-12-29T09:45:28;4.33;;;3.00;;
803;SDS011;25687;49.976;8.240;2022-12-29T09:48:00;3.10;;;2.43;;
803;SDS011;25687;49.976;8.240;2022-12-29T09:50:27;6.00;;;2.43;;
803;SDS011;25687;49.976;8.240;2022-12-29T09:53:05;5.63;;;2.03;;
803;SDS011;25687;49.976;8.240;2022-12-29T09:55:49;2.77;;;1.83;;
803;SDS011;25687;49.976;8.240;2022-12-29T09:58:38;3.03;;;1.93;;
803;SDS011;25687;49.976;8.240;2022-12-29T10:03:56;3.10;;;1.97;;
803;SDS011;25687;49.976;8.240;2022-12-29T10:06:25;3.67;;;2.20;;
803;SDS011;25687;49.976;8.240;2022-12-29T10:09:02;3.20;;;2.00;;
803;SDS011;25687;49.976;8.240;2022-12-29T10:14:28;4.80;;;1.83;;
803;SDS011;25687;49.976;8.240;2022-12-29T10:17:26;2.17;;;1.40;;
803;SDS011;25687;49.976;8.240;2022-12-29T10:19:55;1.67;;;1.30;;
803;SDS011;25687;49.976;8.240;2022-12-29T10:25:20;2.23;;;1.67;;
803;SDS011;25687;49.976;8.240;2022-12-29T10:27:50;3.07;;;1.50;;
803;SDS011;25687;49.976;8.240;2022-12-29T10:30:18;1.70;;;1.13;;
803;SDS011;25687;49.976;8.240;2022-12-29T10:32:52;1.37;;;1.27;;
803;SDS011;25687;49.976;8.240;2022-12-29T10:35:34;1.17;;;0.93;;
803;SDS011;25687;49.976;8.240;2022-12-29T10:40:54;1.13;;;1.00;;
803;SDS011;25687;49.976;8.240;2022-12-29T10:43:29;1.77;;;1.00;;
803;SDS011;25687;49.976;8.240;2022-12-29T10:46:00;4.10;;;1.20;;
803;SDS011;25687;49.976;8.240;2022-12-29T10:48:33;3.10;;;0.80;;
803;SDS011;25687;49.976;8.240;2022-12-29T10:51:01;1.77;;;1.00;;
803;SDS011;25687;49.976;8.240;2022-12-29T10:53:49;1.90;;;1.10;;
803;SDS011;25687;49.976;8.240;2022-12-29T10:56:32;1.17;;;0.80;;
803;SDS011;25687;49.976;8.240;2022-12-29T10:59:22;2.73;;;1.07;;
803;SDS011;25687;49.976;8.240;2022-12-29T11:04:35;2.90;;;1.10;;
803;SDS011;25687;49.976;8.240;2022-12-29T11:07:03;3.97;;;1.30;;
803;SDS011;25687;49.976;8.240;2022-12-29T11:09:29;1.47;;;0.83;;
803;SDS011;25687;49.976;8.240;2022-12-29T11:11:57;1.67;;;1.07;;
803;SDS011;25687;49.976;8.240;2022-12-29T11:14:30;1.37;;;1.07;;
803;SDS011;25687;49.976;8.240;2022-12-29T11:17:00;2.00;;;1.00;;
803;SDS011;25687;49.976;8.240;2022-12-29T11:19:29;5.60;;;1.00;;
803;SDS011;25687;49.976;8.240;2022-12-29T11:22:12;2.53;;;1.20;;
803;SDS011;25687;49.976;8.240;2022-12-29T11:24:50;3.13;;;1.00;;
803;SDS011;25687;49.976;8.240;2022-12-29T11:27:21;3.93;;;0.80;;
803;SDS011;25687;49.976;8.240;2022-12-29T11:29:50;2.40;;;1.10;;
803;SDS011;25687;49.976;8.240;2022-12-29T11:32:24;1.40;;;0.90;;
803;SDS011;25687;49.976;8.240;2022-12-29T11:34:51;1.50;;;1.10;;
803;SDS011;25687;49.976;8.240;2022-12-29T11:37:30;2.80;;;1.30;;
803;SDS011;25687;49.976;8.240;2022-12-29T11:40:04;3.03;;;0.70;;
803;SDS011;25687;49.976;8.240;2022-12-29T11:42:40;1.90;;;1.17;;
803;SDS011;25687;49.976;8.240;2022-12-29T11:45:16;2.53;;;0.80;;
803;SDS011;25687;49.976;8.240;2022-12-29T11:47:44;4.60;;;1.40;;
803;SDS011;25687;49.976;8.240;2022-12-29T11:50:17;2.63;;;1.13;;
803;SDS011;25687;49.976;8.240;2022-12-29T11:52:45;2.57;;;1.23;;
803;SDS011;25687;49.976;8.240;2022-12-29T11:55:17;1.77;;;0.93;;
803;SDS011;25687;49.976;8.240;2022-12-29T11:57:46;2.53;;;1.20;;
803;SDS011;25687;49.976;8.240;2022-12-29T12:00:14;2.37;;;1.20;;
803;SDS011;25687;49.976;8.240;2022-12-29T12:02:45;5.20;;;1.60;;
803;SDS011;25687;49.976;8.240;2022-12-29T12:10:43;3.60;;;1.73;;
803;SDS011;25687;49.976;8.240;2022-12-29T12:13:20;3.03;;;1.30;;
803;SDS011;25687;49.976;8.240;2022-12-29T12:15:54;3.77;;;1.63;;
803;SDS011;25687;49.976;8.240;2022-12-29T12:18:29;4.77;;;1.70;;
803;SDS011;25687;49.976;8.240;2022-12-29T12:21:07;3.77;;;1.30;;
803;SDS011;25687;49.976;8.240;2022-12-29T12:23:58;2.73;;;1.20;;
803;SDS011;25687;49.976;8.240;2022-12-29T12:26:30;2.47;;;1.10;;
803;SDS011;25687;49.976;8.240;2022-12-29T12:29:08;3.25;;;1.40;;
803;SDS011;25687;49.976;8.240;2022-12-29T12:31:43;3.97;;;1.20;;
803;SDS011;25687;49.976;8.240;2022-12-29T12:42:53;4.37;;;1.60;;
803;SDS011;25687;49.976;8.240;2022-12-29T12:50:59;1.50;;;1.10;;
803;SDS011;25687;49.976;8.240;2022-12-29T12:59:30;2.93;;;1.23;;
803;SDS011;25687;49.976;8.240;2022-12-29T13:05:20;3.13;;;1.03;;
803;SDS011;25687;49.976;8.240;2022-12-29T13:19:23;4.73;;;1.47;;
803;SDS011;25687;49.976;8.240;2022-12-29T13:22:13;3.40;;;1.47;;
803;SDS011;25687;49.976;8.240;2022-12-29T13:27:16;1.60;;;1.20;;
803;SDS011;25687;49.976;8.240;2022-12-29T13:30:12;3.23;;;1.50;;
803;SDS011;25687;49.976;8.240;2022-12-29T13:35:59;3.77;;;1.43;;
803;SDS011;25687;49.976;8.240;2022-12-29T13:38:30;5.10;;;1.50;;
803;SDS011;25687;49.976;8.240;2022-12-29T13:41:01;6.30;;;1.67;;
803;SDS011;25687;49.976;8.240;2022-12-29T13:43:34;3.60;;;1.40;;
803;SDS011;25687;49.976;8.240;2022-12-29T13:46:26;3.47;;;1.47;;
803;SDS011;25687;49.976;8.240;2022-12-29T13:48:59;2.60;;;1.10;;
803;SDS011;25687;49.976;8.240;2022-12-29T13:51:32;3.57;;;1.40;;
803;SDS011;25687;49.976;8.240;2022-12-29T13:54:17;3.53;;;1.53;;
803;SDS011;25687;49.976;8.240;2022-12-29T13:59:50;3.90;;;1.53;;
803;SDS011;25687;49.976;8.240;2022-12-29T14:07:48;2.97;;;1.60;;
803;SDS011;25687;49.976;8.240;2022-12-29T14:10:35;4.43;;;1.60;;
803;SDS011;25687;49.976;8.240;2022-12-29T14:13:03;8.10;;;1.60;;
803;SDS011;25687;49.976;8.240;2022-12-29T14:15:36;2.47;;;1.30;;
803;SDS011;25687;49.976;8.240;2022-12-29T14:18:13;3.43;;;1.57;;
803;SDS011;25687;49.976;8.240;2022-12-29T14:20:50;9.17;;;1.60;;
803;SDS011;25687;49.976;8.240;2022-12-29T14:28:53;3.73;;;1.40;;
803;SDS011;25687;49.976;8.240;2022-12-29T14:36:37;4.43;;;1.47;;
803;SDS011;25687;49.976;8.240;2022-12-29T14:39:04;5.77;;;1.47;;
803;SDS011;25687;49.976;8.240;2022-12-29T14:44:34;3.60;;;1.73;;
803;SDS011;25687;49.976;8.240;2022-12-29T14:47:27;3.80;;;1.47;;
803;SDS011;25687;49.976;8.240;2022-12-29T14:49:56;4.97;;;1.40;;
803;SDS011;25687;49.976;8.240;2022-12-29T14:52:29;3.97;;;1.40;;
803;SDS011;25687;49.976;8.240;2022-12-29T14:54:59;6.20;;;1.37;;
803;SDS011;25687;49.976;8.240;2022-12-29T14:58:04;4.23;;;1.80;;
803;SDS011;25687;49.976;8.240;2022-12-29T15:00:34;5.47;;;1.50;;
803;SDS011;25687;49.976;8.240;2022-12-29T15:03:08;3.23;;;1.40;;
803;SDS011;25687;49.976;8.240;2022-12-29T15:08:31;6.53;;;1.43;;
803;SDS011;25687;49.976;8.240;2022-12-29T15:11:01;7.33;;;1.77;;
803;SDS011;25687;49.976;8.240;2022-12-29T15:13:35;7.27;;;1.67;;
803;SDS011;25687;49.976;8.240;2022-12-29T15:16:03;2.70;;;1.30;;
803;SDS011;25687;49.976;8.240;2022-12-29T15:18:30;4.07;;;1.27;;
803;SDS011;25687;49.976;8.240;2022-12-29T15:20:58;3.30;;;1.30;;
803;SDS011;25687;49.976;8.240;2022-12-29T15:23:25;4.77;;;1.50;;
803;SDS011;25687;49.976;8.240;2022-12-29T15:25:59;4.40;;;1.50;;
803;SDS011;25687;49.976;8.240;2022-12-29T15:28:41;4.70;;;1.43;;
803;SDS011;25687;49.976;8.240;2022-12-29T15:31:11;4.90;;;1.30;;
803;SDS011;25687;49.976;8.240;2022-12-29T15:33:42;3.17;;;1.43;;
803;SDS011;25687;49.976;8.240;2022-12-29T15:36:14;4.90;;;1.37;;
803;SDS011;25687;49.976;8.240;2022-12-29T15:38:44;4.20;;;1.67;;
803;SDS011;25687;49.976;8.240;2022-12-29T15:43:53;5.50;;;1.30;;
803;SDS011;25687;49.976;8.240;2022-12-29T15:46:39;9.57;;;1.73;;
803;SDS011;25687;49.976;8.240;2022-12-29T15:49:05;4.23;;;1.23;;
803;SDS011;25687;49.976;8.240;2022-12-29T15:51:40;4.47;;;1.60;;
803;SDS011;25687;49.976;8.240;2022-12-29T15:54:06;4.77;;;1.47;;
803;SDS011;25687;49.976;8.240;2022-12-29T15:56:41;4.27;;;1.53;;
803;SDS011;25687;49.976;8.240;2022-12-29T15:59:24;4.27;;;1.80;;
803;SDS011;25687;49.976;8.240;2022-12-29T16:01:52;6.10;;;2.07;;
803;SDS011;25687;49.976;8.240;2022-12-29T16:04:19;5.43;;;1.70;;
803;SDS011;25687;49.976;8.240;2022-12-29T16:06:53;5.90;;;1.87;;
803;SDS011;25687;49.976;8.240;2022-12-29T16:09:32;4.43;;;1.73;;
803;SDS011;25687;49.976;8.240;2022-12-29T16:12:00;5.77;;;3.50;;
803;SDS011;25687;49.976;8.240;2022-12-29T16:17:58;16.60;;;8.50;;
803;SDS011;25687;49.976;8.240;2022-12-29T16:20:24;8.93;;;5.07;;
803;SDS011;25687;49.976;8.240;2022-12-29T16:22:57;9.50;;;5.37;;
803;SDS011;25687;49.976;8.240;2022-12-29T16:25:25;14.37;;;10.73;;
803;SDS011;25687;49.976;8.240;2022-12-29T16:27:56;5.77;;;2.50;;
803;SDS011;25687;49.976;8.240;2022-12-29T16:30:24;10.13;;;5.63;;
803;SDS011;25687;49.976;8.240;2022-12-29T16:32:52;7.83;;;5.40;;
803;SDS011;25687;49.976;8.240;2022-12-29T16:35:21;9.50;;;4.63;;
803;SDS011;25687;49.976;8.240;2022-12-29T16:37:49;6.47;;;2.27;;
803;SDS011;25687;49.976;8.240;2022-12-29T16:40:49;8.97;;;4.27;;
803;SDS011;25687;49.976;8.240;2022-12-29T16:43:28;7.10;;;4.27;;
803;SDS011;25687;49.976;8.240;2022-12-29T16:48:25;8.73;;;3.90;;
803;SDS011;25687;49.976;8.240;2022-12-29T16:51:00;4.40;;;2.97;;
803;SDS011;25687;49.976;8.240;2022-12-29T16:53:34;6.27;;;2.07;;
803;SDS011;25687;49.976;8.240;2022-12-29T16:56:03;8.90;;;2.83;;
803;SDS011;25687;49.976;8.240;2022-12-29T16:58:34;4.17;;;2.20;;
803;SDS011;25687;49.976;8.240;2022-12-29T17:01:00;8.03;;;3.17;;
803;SDS011;25687;49.976;8.240;2022-12-29T17:03:34;4.20;;;2.07;;
803;SDS011;25687;49.976;8.240;2022-12-29T17:06:04;5.13;;;2.97;;
803;SDS011;25687;49.976;8.240;2022-12-29T17:08:37;8.57;;;3.13;;
803;SDS011;25687;49.976;8.240;2022-12-29T17:11:05;5.30;;;2.73;;
803;SDS011;25687;49.976;8.240;2022-12-29T17:14:04;7.07;;;2.83;;
803;SDS011;25687;49.976;8.240;2022-12-29T17:16:30;8.67;;;2.80;;
803;SDS011;25687;49.976;8.240;2022-12-29T17:18:56;5.37;;;1.93;;
803;SDS011;25687;49.976;8.240;2022-12-29T17:21:21;5.03;;;2.13;;
803;SDS011;25687;49.976;8.240;2022-12-29T17:23:47;6.17;;;2.20;;
803;SDS011;25687;49.976;8.240;2022-12-29T17:26:12;5.63;;;2.70;;
803;SDS011;25687;49.976;8.240;2022-12-29T17:28:37;4.90;;;2.03;;
803;SDS011;25687;49.976;8.240;2022-12-29T17:31:04;6.10;;;2.60;;
803;SDS011;25687;49.976;8.240;2022-12-29T17:33:33;7.07;;;2.87;;